sensor_id;sensor_type;location;lat;lon;timestamp;P1;durP1;ratioP1;P2;durP2;ratioP2
14015;SDS011;7083;48.854;9.158;2022-12-07T00:01:18;898.17;;;842.63;;
14015;SDS011;7083;48.854;9.158;2022-12-07T00:03:47;914.77;;;857.93;;
14015;SDS011;7083;48.854;9.158;2022-12-07T00:06:15;922.33;;;864.00;;
14015;SDS011;7083;48.854;9.158;2022-12-07T00:08:42;937.33;;;878.43;;
14015;SDS011;7083;48.854;9.158;2022-12-07T00:11:10;933.20;;;873.90;;
14015;SDS011;7083;48.854;9.158;2022-12-07T00:13:39;905.87;;;849.27;;
14015;SDS011;7083;48.854;9.158;2022-12-07T00:16:06;917.17;;;859.90;;
14015;SDS011;7083;48.854;9.158;2022-12-07T00:18:37;927.13;;;868.87;;
14015;SDS011;7083;48.854;9.158;2022-12-07T00:21:04;930.40;;;871.70;;
14015;SDS011;7083;48.854;9.158;2022-12-07T00:23:32;837.43;;;787.70;;
14015;SDS011;7083;48.854;9.158;2022-12-07T00:26:02;873.20;;;819.67;;
14015;SDS011;7083;48.854;9.158;2022-12-07T00:28:30;919.53;;;862.13;;
14015;SDS011;7083;48.854;9.158;2022-12-07T00:30:59;886.17;;;831.53;;
14015;SDS011;7083;48.854;9.158;2022-12-07T00:33:27;912.97;;;855.57;;
14015;SDS011;7083;48.854;9.158;2022-12-07T00:35:56;903.27;;;846.97;;
14015;SDS011;7083;48.854;9.158;2022-12-07T00:38:23;933.60;;;875.07;;
14015;SDS011;7083;48.854;9.158;2022-12-07T00:40:54;899.10;;;844.00;;
14015;SDS011;7083;48.854;9.158;2022-12-07T00:43:21;916.60;;;859.13;;
14015;SDS011;7083;48.854;9.158;2022-12-07T00:45:48;915.73;;;858.10;;
14015;SDS011;7083;48.854;9.158;2022-12-07T00:48:15;921.50;;;863.30;;
14015;SDS011;7083;48.854;9.158;2022-12-07T00:50:42;899.00;;;842.73;;
14015;SDS011;7083;48.854;9.158;2022-12-07T00:53:10;919.93;;;862.27;;
14015;SDS011;7083;48.854;9.158;2022-12-07T00:55:37;915.50;;;858.30;;
14015;SDS011;7083;48.854;9.158;2022-12-07T00:58:03;912.07;;;854.67;;
14015;SDS011;7083;48.854;9.158;2022-12-07T01:00:30;897.10;;;841.33;;
14015;SDS011;7083;48.854;9.158;2022-12-07T01:02:57;901.40;;;845.10;;
14015;SDS011;7083;48.854;9.158;2022-12-07T01:05:24;889.37;;;835.27;;
14015;SDS011;7083;48.854;9.158;2022-12-07T01:07:51;846.17;;;796.07;;
14015;SDS011;7083;48.854;9.158;2022-12-07T01:10:19;844.17;;;794.37;;
14015;SDS011;7083;48.854;9.158;2022-12-07T01:12:46;878.97;;;825.47;;
14015;SDS011;7083;48.854;9.158;2022-12-07T01:15:13;878.97;;;825.10;;
14015;SDS011;7083;48.854;9.158;2022-12-07T01:17:40;870.67;;;817.30;;
14015;SDS011;7083;48.854;9.158;2022-12-07T01:20:07;882.37;;;828.10;;
14015;SDS011;7083;48.854;9.158;2022-12-07T01:22:35;900.37;;;844.93;;
14015;SDS011;7083;48.854;9.158;2022-12-07T01:25:03;915.60;;;858.37;;
14015;SDS011;7083;48.854;9.158;2022-12-07T01:27:31;922.33;;;864.30;;
14015;SDS011;7083;48.854;9.158;2022-12-07T01:29:58;882.73;;;828.57;;
14015;SDS011;7083;48.854;9.158;2022-12-07T01:32:25;924.03;;;865.43;;
14015;SDS011;7083;48.854;9.158;2022-12-07T01:34:52;907.93;;;851.60;;
14015;SDS011;7083;48.854;9.158;2022-12-07T01:37:19;922.40;;;864.07;;
14015;SDS011;7083;48.854;9.158;2022-12-07T01:39:47;918.03;;;860.33;;
14015;SDS011;7083;48.854;9.158;2022-12-07T01:42:14;927.53;;;869.17;;
14015;SDS011;7083;48.854;9.158;2022-12-07T01:48:00;957.70;;;895.73;;
14015;SDS011;7083;48.854;9.158;2022-12-07T01:50:27;926.60;;;867.90;;
14015;SDS011;7083;48.854;9.158;2022-12-07T01:52:56;911.57;;;855.10;;
14015;SDS011;7083;48.854;9.158;2022-12-07T01:55:25;910.27;;;853.77;;
14015;SDS011;7083;48.854;9.158;2022-12-07T01:57:53;870.03;;;818.00;;
14015;SDS011;7083;48.854;9.158;2022-12-07T02:00:21;874.47;;;821.13;;
14015;SDS011;7083;48.854;9.158;2022-12-07T02:02:51;861.23;;;809.67;;
14015;SDS011;7083;48.854;9.158;2022-12-07T02:05:20;820.33;;;772.83;;
14015;SDS011;7083;48.854;9.158;2022-12-07T02:07:47;845.10;;;794.57;;
14015;SDS011;7083;48.854;9.158;2022-12-07T02:10:17;867.90;;;814.97;;
14015;SDS011;7083;48.854;9.158;2022-12-07T02:12:47;862.73;;;810.87;;
14015;SDS011;7083;48.854;9.158;2022-12-07T02:15:18;765.07;;;721.97;;
14015;SDS011;7083;48.854;9.158;2022-12-07T02:17:49;807.83;;;761.10;;
14015;SDS011;7083;48.854;9.158;2022-12-07T02:20:23;859.13;;;807.13;;
14015;SDS011;7083;48.854;9.158;2022-12-07T02:23:00;843.10;;;793.53;;
14015;SDS011;7083;48.854;9.158;2022-12-07T02:25:51;883.20;;;828.67;;
14015;SDS011;7083;48.854;9.158;2022-12-07T02:28:29;900.63;;;844.77;;
14015;SDS011;7083;48.854;9.158;2022-12-07T02:31:01;873.23;;;820.03;;
14015;SDS011;7083;48.854;9.158;2022-12-07T02:33:33;875.63;;;821.87;;
14015;SDS011;7083;48.854;9.158;2022-12-07T02:36:04;889.37;;;835.20;;
14015;SDS011;7083;48.854;9.158;2022-12-07T02:38:37;804.27;;;757.77;;
14015;SDS011;7083;48.854;9.158;2022-12-07T02:41:10;862.07;;;809.77;;
14015;SDS011;7083;48.854;9.158;2022-12-07T02:43:39;868.27;;;815.53;;
14015;SDS011;7083;48.854;9.158;2022-12-07T02:46:13;868.10;;;815.50;;
14015;SDS011;7083;48.854;9.158;2022-12-07T02:48:44;874.33;;;820.67;;
14015;SDS011;7083;48.854;9.158;2022-12-07T02:51:12;854.10;;;802.40;;
14015;SDS011;7083;48.854;9.158;2022-12-07T02:53:39;858.10;;;806.60;;
14015;SDS011;7083;48.854;9.158;2022-12-07T02:56:11;815.90;;;768.50;;
14015;SDS011;7083;48.854;9.158;2022-12-07T02:58:59;857.63;;;805.97;;
14015;SDS011;7083;48.854;9.158;2022-12-07T03:01:36;870.40;;;817.30;;
14015;SDS011;7083;48.854;9.158;2022-12-07T03:04:14;881.87;;;827.73;;
14015;SDS011;7083;48.854;9.158;2022-12-07T03:06:51;932.67;;;874.13;;
14015;SDS011;7083;48.854;9.158;2022-12-07T03:09:27;913.37;;;856.13;;
14015;SDS011;7083;48.854;9.158;2022-12-07T03:12:05;885.73;;;831.33;;
14015;SDS011;7083;48.854;9.158;2022-12-07T03:14:40;908.97;;;852.50;;
14015;SDS011;7083;48.854;9.158;2022-12-07T03:17:13;938.33;;;878.90;;
14015;SDS011;7083;48.854;9.158;2022-12-07T03:19:42;898.73;;;842.87;;
14015;SDS011;7083;48.854;9.158;2022-12-07T03:22:17;911.10;;;854.30;;
14015;SDS011;7083;48.854;9.158;2022-12-07T03:24:58;911.47;;;855.00;;
14015;SDS011;7083;48.854;9.158;2022-12-07T03:27:28;885.63;;;831.63;;
14015;SDS011;7083;48.854;9.158;2022-12-07T03:29:59;862.57;;;810.47;;
14015;SDS011;7083;48.854;9.158;2022-12-07T03:32:31;841.03;;;791.17;;
14015;SDS011;7083;48.854;9.158;2022-12-07T03:35:03;895.90;;;841.30;;
14015;SDS011;7083;48.854;9.158;2022-12-07T03:37:41;882.13;;;828.17;;
14015;SDS011;7083;48.854;9.158;2022-12-07T03:40:13;883.23;;;829.13;;
14015;SDS011;7083;48.854;9.158;2022-12-07T03:42:50;892.10;;;837.50;;
14015;SDS011;7083;48.854;9.158;2022-12-07T03:45:25;830.73;;;782.07;;
14015;SDS011;7083;48.854;9.158;2022-12-07T03:48:03;834.53;;;784.67;;
14015;SDS011;7083;48.854;9.158;2022-12-07T03:50:43;851.73;;;800.30;;
14015;SDS011;7083;48.854;9.158;2022-12-07T03:53:18;905.33;;;849.07;;
14015;SDS011;7083;48.854;9.158;2022-12-07T03:55:48;1586.60;;;904.37;;
14015;SDS011;7083;48.854;9.158;2022-12-07T03:58:21;1580.73;;;898.60;;
14015;SDS011;7083;48.854;9.158;2022-12-07T04:00:50;1999.90;;;999.90;;
14015;SDS011;7083;48.854;9.158;2022-12-07T04:03:19;1555.50;;;875.07;;
14015;SDS011;7083;48.854;9.158;2022-12-07T04:05:48;881.87;;;826.60;;
14015;SDS011;7083;48.854;9.158;2022-12-07T04:08:15;1603.77;;;919.77;;
14015;SDS011;7083;48.854;9.158;2022-12-07T04:10:43;637.63;;;599.27;;
14015;SDS011;7083;48.854;9.158;2022-12-07T04:13:10;1999.90;;;999.90;;
14015;SDS011;7083;48.854;9.158;2022-12-07T04:15:37;1999.90;;;999.90;;
14015;SDS011;7083;48.854;9.158;2022-12-07T04:18:03;1508.10;;;830.70;;
14015;SDS011;7083;48.854;9.158;2022-12-07T04:20:32;1570.73;;;889.63;;
14015;SDS011;7083;48.854;9.158;2022-12-07T04:22:58;816.00;;;765.13;;
14015;SDS011;7083;48.854;9.158;2022-12-07T04:25:25;853.10;;;801.23;;
14015;SDS011;7083;48.854;9.158;2022-12-07T04:27:52;859.10;;;807.03;;
14015;SDS011;7083;48.854;9.158;2022-12-07T04:30:18;867.13;;;814.90;;
14015;SDS011;7083;48.854;9.158;2022-12-07T04:32:45;824.80;;;776.13;;
14015;SDS011;7083;48.854;9.158;2022-12-07T04:35:12;846.30;;;795.13;;
14015;SDS011;7083;48.854;9.158;2022-12-07T04:37:40;908.00;;;851.63;;
14015;SDS011;7083;48.854;9.158;2022-12-07T04:40:07;858.40;;;806.50;;
14015;SDS011;7083;48.854;9.158;2022-12-07T04:42:36;891.93;;;836.53;;
14015;SDS011;7083;48.854;9.158;2022-12-07T04:45:03;880.73;;;826.23;;
14015;SDS011;7083;48.854;9.158;2022-12-07T04:47:30;839.73;;;790.07;;
14015;SDS011;7083;48.854;9.158;2022-12-07T04:49:57;858.77;;;807.17;;
14015;SDS011;7083;48.854;9.158;2022-12-07T04:52:25;854.73;;;803.37;;
14015;SDS011;7083;48.854;9.158;2022-12-07T04:54:53;886.07;;;831.27;;
14015;SDS011;7083;48.854;9.158;2022-12-07T04:57:20;922.50;;;864.50;;
14015;SDS011;7083;48.854;9.158;2022-12-07T04:59:47;913.13;;;856.17;;
14015;SDS011;7083;48.854;9.158;2022-12-07T05:02:22;1614.80;;;929.77;;
14015;SDS011;7083;48.854;9.158;2022-12-07T05:04:49;1999.90;;;999.90;;
14015;SDS011;7083;48.854;9.158;2022-12-07T05:07:16;1999.90;;;999.90;;
14015;SDS011;7083;48.854;9.158;2022-12-07T05:09:42;1521.87;;;842.93;;
14015;SDS011;7083;48.854;9.158;2022-12-07T05:12:10;1999.90;;;999.90;;
14015;SDS011;7083;48.854;9.158;2022-12-07T05:14:37;1999.90;;;999.90;;
14015;SDS011;7083;48.854;9.158;2022-12-07T05:17:04;1999.90;;;999.90;;
14015;SDS011;7083;48.854;9.158;2022-12-07T05:19:30;1999.90;;;999.90;;
14015;SDS011;7083;48.854;9.158;2022-12-07T05:21:57;1999.90;;;999.90;;
14015;SDS011;7083;48.854;9.158;2022-12-07T05:24:24;1999.90;;;999.90;;
14015;SDS011;7083;48.854;9.158;2022-12-07T05:26:59;1999.90;;;999.90;;
14015;SDS011;7083;48.854;9.158;2022-12-07T05:29:57;1999.90;;;999.90;;
14015;SDS011;7083;48.854;9.158;2022-12-07T05:32:24;1999.90;;;999.90;;
14015;SDS011;7083;48.854;9.158;2022-12-07T05:34:51;1999.90;;;999.90;;
14015;SDS011;7083;48.854;9.158;2022-12-07T05:37:22;1999.90;;;999.90;;
14015;SDS011;7083;48.854;9.158;2022-12-07T05:39:56;1999.90;;;999.90;;
14015;SDS011;7083;48.854;9.158;2022-12-07T05:42:23;1999.90;;;999.90;;
14015;SDS011;7083;48.854;9.158;2022-12-07T05:45:06;1999.90;;;999.90;;
14015;SDS011;7083;48.854;9.158;2022-12-07T05:47:35;1999.90;;;999.90;;
14015;SDS011;7083;48.854;9.158;2022-12-07T05:50:02;1999.90;;;999.90;;
14015;SDS011;7083;48.854;9.158;2022-12-07T05:52:31;1583.20;;;900.07;;
14015;SDS011;7083;48.854;9.158;2022-12-07T05:55:08;740.33;;;696.17;;
14015;SDS011;7083;48.854;9.158;2022-12-07T05:57:35;1637.60;;;952.07;;
14015;SDS011;7083;48.854;9.158;2022-12-07T06:00:03;906.83;;;850.60;;
14015;SDS011;7083;48.854;9.158;2022-12-07T06:02:31;904.57;;;847.97;;
14015;SDS011;7083;48.854;9.158;2022-12-07T06:04:58;909.87;;;853.73;;
14015;SDS011;7083;48.854;9.158;2022-12-07T06:07:24;837.23;;;787.37;;
14015;SDS011;7083;48.854;9.158;2022-12-07T06:09:51;836.87;;;786.70;;
14015;SDS011;7083;48.854;9.158;2022-12-07T06:12:18;887.37;;;832.37;;
14015;SDS011;7083;48.854;9.158;2022-12-07T06:14:59;885.87;;;830.83;;
14015;SDS011;7083;48.854;9.158;2022-12-07T06:17:27;894.67;;;839.23;;
14015;SDS011;7083;48.854;9.158;2022-12-07T06:19:53;880.20;;;826.83;;
14015;SDS011;7083;48.854;9.158;2022-12-07T06:22:20;906.23;;;850.20;;
14015;SDS011;7083;48.854;9.158;2022-12-07T06:24:47;911.60;;;854.43;;
14015;SDS011;7083;48.854;9.158;2022-12-07T06:27:14;833.13;;;784.03;;
14015;SDS011;7083;48.854;9.158;2022-12-07T06:29:40;806.53;;;759.73;;
14015;SDS011;7083;48.854;9.158;2022-12-07T06:32:07;873.43;;;820.20;;
14015;SDS011;7083;48.854;9.158;2022-12-07T06:34:35;901.90;;;845.97;;
14015;SDS011;7083;48.854;9.158;2022-12-07T06:37:02;1999.90;;;999.90;;
14015;SDS011;7083;48.854;9.158;2022-12-07T06:39:29;1999.90;;;999.90;;
14015;SDS011;7083;48.854;9.158;2022-12-07T06:41:56;1999.90;;;999.90;;
14015;SDS011;7083;48.854;9.158;2022-12-07T06:44:24;1999.90;;;999.90;;
14015;SDS011;7083;48.854;9.158;2022-12-07T06:46:51;1999.90;;;999.90;;
14015;SDS011;7083;48.854;9.158;2022-12-07T06:49:18;1999.90;;;999.90;;
14015;SDS011;7083;48.854;9.158;2022-12-07T06:51:46;1999.90;;;999.90;;
14015;SDS011;7083;48.854;9.158;2022-12-07T06:54:13;1999.90;;;999.90;;
14015;SDS011;7083;48.854;9.158;2022-12-07T06:56:41;1999.90;;;999.90;;
14015;SDS011;7083;48.854;9.158;2022-12-07T06:59:08;1999.90;;;999.90;;
14015;SDS011;7083;48.854;9.158;2022-12-07T07:01:35;1999.90;;;999.90;;
14015;SDS011;7083;48.854;9.158;2022-12-07T07:04:02;1999.90;;;999.90;;
14015;SDS011;7083;48.854;9.158;2022-12-07T07:06:29;1999.90;;;999.90;;
14015;SDS011;7083;48.854;9.158;2022-12-07T07:08:57;1999.90;;;999.90;;
14015;SDS011;7083;48.854;9.158;2022-12-07T07:11:24;1999.90;;;999.90;;
14015;SDS011;7083;48.854;9.158;2022-12-07T07:13:51;1999.90;;;999.90;;
14015;SDS011;7083;48.854;9.158;2022-12-07T07:16:18;1999.90;;;999.90;;
14015;SDS011;7083;48.854;9.158;2022-12-07T07:18:45;1999.90;;;999.90;;
14015;SDS011;7083;48.854;9.158;2022-12-07T07:21:12;1999.90;;;999.90;;
14015;SDS011;7083;48.854;9.158;2022-12-07T07:23:38;1999.90;;;999.90;;
14015;SDS011;7083;48.854;9.158;2022-12-07T07:26:06;1999.90;;;999.90;;
14015;SDS011;7083;48.854;9.158;2022-12-07T07:28:33;1999.90;;;999.90;;
14015;SDS011;7083;48.854;9.158;2022-12-07T07:31:00;1999.90;;;999.90;;
14015;SDS011;7083;48.854;9.158;2022-12-07T07:33:27;1999.90;;;999.90;;
14015;SDS011;7083;48.854;9.158;2022-12-07T07:35:53;1999.90;;;999.90;;
14015;SDS011;7083;48.854;9.158;2022-12-07T07:38:20;1999.90;;;999.90;;
14015;SDS011;7083;48.854;9.158;2022-12-07T07:40:47;1999.90;;;999.90;;
14015;SDS011;7083;48.854;9.158;2022-12-07T07:43:15;1999.90;;;999.90;;
14015;SDS011;7083;48.854;9.158;2022-12-07T07:45:41;793.67;;;748.10;;
14015;SDS011;7083;48.854;9.158;2022-12-07T07:48:08;1999.90;;;999.90;;
14015;SDS011;7083;48.854;9.158;2022-12-07T07:50:35;1999.90;;;999.90;;
14015;SDS011;7083;48.854;9.158;2022-12-07T07:53:02;1999.90;;;999.90;;
14015;SDS011;7083;48.854;9.158;2022-12-07T07:55:28;1999.90;;;999.90;;
14015;SDS011;7083;48.854;9.158;2022-12-07T07:57:55;1999.90;;;999.90;;
14015;SDS011;7083;48.854;9.158;2022-12-07T08:00:23;1999.90;;;999.90;;
14015;SDS011;7083;48.854;9.158;2022-12-07T08:02:50;1999.90;;;999.90;;
14015;SDS011;7083;48.854;9.158;2022-12-07T08:05:17;1999.90;;;999.90;;
14015;SDS011;7083;48.854;9.158;2022-12-07T08:07:44;1999.90;;;999.90;;
14015;SDS011;7083;48.854;9.158;2022-12-07T08:10:11;1999.90;;;999.90;;
14015;SDS011;7083;48.854;9.158;2022-12-07T08:12:39;1999.90;;;999.90;;
14015;SDS011;7083;48.854;9.158;2022-12-07T08:15:21;1999.90;;;999.90;;
14015;SDS011;7083;48.854;9.158;2022-12-07T08:17:49;1999.90;;;999.90;;
14015;SDS011;7083;48.854;9.158;2022-12-07T08:20:16;1999.90;;;999.90;;
14015;SDS011;7083;48.854;9.158;2022-12-07T08:22:43;1999.90;;;999.90;;
14015;SDS011;7083;48.854;9.158;2022-12-07T08:25:09;1999.90;;;999.90;;
14015;SDS011;7083;48.854;9.158;2022-12-07T08:27:36;1999.90;;;999.90;;
14015;SDS011;7083;48.854;9.158;2022-12-07T08:30:03;1999.90;;;999.90;;
14015;SDS011;7083;48.854;9.158;2022-12-07T08:32:32;1999.90;;;999.90;;
14015;SDS011;7083;48.854;9.158;2022-12-07T08:34:59;1999.90;;;999.90;;
14015;SDS011;7083;48.854;9.158;2022-12-07T08:37:26;1999.90;;;999.90;;
14015;SDS011;7083;48.854;9.158;2022-12-07T08:39:52;1999.90;;;999.90;;
14015;SDS011;7083;48.854;9.158;2022-12-07T08:42:19;1999.90;;;999.90;;
14015;SDS011;7083;48.854;9.158;2022-12-07T08:44:48;1999.90;;;999.90;;
14015;SDS011;7083;48.854;9.158;2022-12-07T08:47:14;1999.90;;;999.90;;
14015;SDS011;7083;48.854;9.158;2022-12-07T08:49:43;1999.90;;;999.90;;
14015;SDS011;7083;48.854;9.158;2022-12-07T08:52:12;1999.90;;;999.90;;
14015;SDS011;7083;48.854;9.158;2022-12-07T08:54:39;1999.90;;;999.90;;
14015;SDS011;7083;48.854;9.158;2022-12-07T08:57:07;1999.90;;;999.90;;
14015;SDS011;7083;48.854;9.158;2022-12-07T08:59:35;1999.90;;;999.90;;
14015;SDS011;7083;48.854;9.158;2022-12-07T09:02:03;1999.90;;;999.90;;
14015;SDS011;7083;48.854;9.158;2022-12-07T09:04:30;1999.90;;;999.90;;
14015;SDS011;7083;48.854;9.158;2022-12-07T09:06:58;1999.90;;;999.90;;
14015;SDS011;7083;48.854;9.158;2022-12-07T09:09:25;1999.90;;;999.90;;
14015;SDS011;7083;48.854;9.158;2022-12-07T09:11:52;1999.90;;;999.90;;
14015;SDS011;7083;48.854;9.158;2022-12-07T09:14:18;1999.90;;;999.90;;
14015;SDS011;7083;48.854;9.158;2022-12-07T09:16:45;1999.90;;;999.90;;
14015;SDS011;7083;48.854;9.158;2022-12-07T09:19:12;1999.90;;;999.90;;
14015;SDS011;7083;48.854;9.158;2022-12-07T09:21:38;1999.90;;;999.90;;
14015;SDS011;7083;48.854;9.158;2022-12-07T09:24:07;1999.90;;;999.90;;
14015;SDS011;7083;48.854;9.158;2022-12-07T09:26:34;1999.90;;;999.90;;
14015;SDS011;7083;48.854;9.158;2022-12-07T09:29:01;1999.90;;;999.90;;
14015;SDS011;7083;48.854;9.158;2022-12-07T09:31:29;1999.90;;;999.90;;
14015;SDS011;7083;48.854;9.158;2022-12-07T09:33:55;1999.90;;;999.90;;
14015;SDS011;7083;48.854;9.158;2022-12-07T09:36:23;1999.90;;;999.90;;
14015;SDS011;7083;48.854;9.158;2022-12-07T09:38:50;1999.90;;;999.90;;
14015;SDS011;7083;48.854;9.158;2022-12-07T09:41:18;1999.90;;;999.90;;
14015;SDS011;7083;48.854;9.158;2022-12-07T09:43:46;1999.90;;;999.90;;
14015;SDS011;7083;48.854;9.158;2022-12-07T09:46:14;1999.90;;;999.90;;
14015;SDS011;7083;48.854;9.158;2022-12-07T09:48:44;1999.90;;;999.90;;
14015;SDS011;7083;48.854;9.158;2022-12-07T09:51:13;1999.90;;;999.90;;
14015;SDS011;7083;48.854;9.158;2022-12-07T09:53:42;1999.90;;;999.90;;
14015;SDS011;7083;48.854;9.158;2022-12-07T09:56:10;1999.90;;;999.90;;
14015;SDS011;7083;48.854;9.158;2022-12-07T09:58:40;1999.90;;;999.90;;
14015;SDS011;7083;48.854;9.158;2022-12-07T10:01:09;1999.90;;;999.90;;
14015;SDS011;7083;48.854;9.158;2022-12-07T10:03:39;1999.90;;;999.90;;
14015;SDS011;7083;48.854;9.158;2022-12-07T10:06:11;1999.90;;;999.90;;
14015;SDS011;7083;48.854;9.158;2022-12-07T10:08:39;1999.90;;;999.90;;
14015;SDS011;7083;48.854;9.158;2022-12-07T10:11:08;1999.90;;;999.90;;
14015;SDS011;7083;48.854;9.158;2022-12-07T10:13:36;1999.90;;;999.90;;
14015;SDS011;7083;48.854;9.158;2022-12-07T10:16:06;1999.90;;;999.90;;
14015;SDS011;7083;48.854;9.158;2022-12-07T10:18:52;1999.90;;;999.90;;
14015;SDS011;7083;48.854;9.158;2022-12-07T10:21:20;1999.90;;;999.90;;
14015;SDS011;7083;48.854;9.158;2022-12-07T10:23:59;1999.90;;;999.90;;
14015;SDS011;7083;48.854;9.158;2022-12-07T10:26:28;1999.90;;;999.90;;
14015;SDS011;7083;48.854;9.158;2022-12-07T10:28:58;1999.90;;;999.90;;
14015;SDS011;7083;48.854;9.158;2022-12-07T10:31:28;1999.90;;;999.90;;
14015;SDS011;7083;48.854;9.158;2022-12-07T10:33:55;1999.90;;;999.90;;
14015;SDS011;7083;48.854;9.158;2022-12-07T10:36:24;1999.90;;;999.90;;
14015;SDS011;7083;48.854;9.158;2022-12-07T10:38:53;1999.90;;;999.90;;
14015;SDS011;7083;48.854;9.158;2022-12-07T10:41:26;1999.90;;;999.90;;
14015;SDS011;7083;48.854;9.158;2022-12-07T10:43:53;1999.90;;;999.90;;
14015;SDS011;7083;48.854;9.158;2022-12-07T10:46:29;1999.90;;;999.90;;
14015;SDS011;7083;48.854;9.158;2022-12-07T10:49:13;1999.90;;;999.90;;
14015;SDS011;7083;48.854;9.158;2022-12-07T10:52:04;1999.90;;;999.90;;
14015;SDS011;7083;48.854;9.158;2022-12-07T10:54:41;1999.90;;;999.90;;
14015;SDS011;7083;48.854;9.158;2022-12-07T10:57:19;1999.90;;;999.90;;
14015;SDS011;7083;48.854;9.158;2022-12-07T10:59:58;1999.90;;;999.90;;
14015;SDS011;7083;48.854;9.158;2022-12-07T11:05:35;1999.90;;;999.90;;
14015;SDS011;7083;48.854;9.158;2022-12-07T11:08:13;1999.90;;;999.90;;
14015;SDS011;7083;48.854;9.158;2022-12-07T11:10:48;1999.90;;;999.90;;
14015;SDS011;7083;48.854;9.158;2022-12-07T11:13:25;1999.90;;;999.90;;
14015;SDS011;7083;48.854;9.158;2022-12-07T11:16:14;1999.90;;;999.90;;
14015;SDS011;7083;48.854;9.158;2022-12-07T11:18:55;1999.90;;;999.90;;
14015;SDS011;7083;48.854;9.158;2022-12-07T11:21:34;1999.90;;;999.90;;
14015;SDS011;7083;48.854;9.158;2022-12-07T11:24:10;1999.90;;;999.90;;
14015;SDS011;7083;48.854;9.158;2022-12-07T11:26:46;1999.90;;;999.90;;
14015;SDS011;7083;48.854;9.158;2022-12-07T11:29:28;1999.90;;;999.90;;
14015;SDS011;7083;48.854;9.158;2022-12-07T11:32:13;1999.90;;;999.90;;
14015;SDS011;7083;48.854;9.158;2022-12-07T11:34:48;1999.90;;;999.90;;
14015;SDS011;7083;48.854;9.158;2022-12-07T11:37:25;1999.90;;;999.90;;
14015;SDS011;7083;48.854;9.158;2022-12-07T11:39:59;1999.90;;;999.90;;
14015;SDS011;7083;48.854;9.158;2022-12-07T11:42:29;1999.90;;;999.90;;
14015;SDS011;7083;48.854;9.158;2022-12-07T11:45:00;1999.90;;;999.90;;
14015;SDS011;7083;48.854;9.158;2022-12-07T11:47:38;1999.90;;;999.90;;
14015;SDS011;7083;48.854;9.158;2022-12-07T11:50:16;1999.90;;;999.90;;
14015;SDS011;7083;48.854;9.158;2022-12-07T11:52:51;1999.90;;;999.90;;
14015;SDS011;7083;48.854;9.158;2022-12-07T11:55:24;1999.90;;;999.90;;
14015;SDS011;7083;48.854;9.158;2022-12-07T11:57:58;1999.90;;;999.90;;
14015;SDS011;7083;48.854;9.158;2022-12-07T12:00:30;1999.90;;;999.90;;
14015;SDS011;7083;48.854;9.158;2022-12-07T12:02:57;1999.90;;;999.90;;
14015;SDS011;7083;48.854;9.158;2022-12-07T12:05:29;1999.90;;;999.90;;
14015;SDS011;7083;48.854;9.158;2022-12-07T12:07:59;1999.90;;;999.90;;
14015;SDS011;7083;48.854;9.158;2022-12-07T12:10:34;1999.90;;;999.90;;
14015;SDS011;7083;48.854;9.158;2022-12-07T12:13:43;1999.90;;;999.90;;
14015;SDS011;7083;48.854;9.158;2022-12-07T12:16:40;1999.90;;;999.90;;
14015;SDS011;7083;48.854;9.158;2022-12-07T12:19:30;1999.90;;;999.90;;
14015;SDS011;7083;48.854;9.158;2022-12-07T12:22:03;1999.90;;;999.90;;
14015;SDS011;7083;48.854;9.158;2022-12-07T12:24:36;1999.90;;;999.90;;
14015;SDS011;7083;48.854;9.158;2022-12-07T12:27:06;1999.90;;;999.90;;
14015;SDS011;7083;48.854;9.158;2022-12-07T12:29:36;1999.90;;;999.90;;
14015;SDS011;7083;48.854;9.158;2022-12-07T12:32:06;1999.90;;;999.90;;
14015;SDS011;7083;48.854;9.158;2022-12-07T12:34:40;1999.90;;;999.90;;
14015;SDS011;7083;48.854;9.158;2022-12-07T12:37:44;1999.90;;;999.90;;
14015;SDS011;7083;48.854;9.158;2022-12-07T12:43:21;1999.90;;;999.90;;
14015;SDS011;7083;48.854;9.158;2022-12-07T12:55:14;1999.90;;;999.90;;
14015;SDS011;7083;48.854;9.158;2022-12-07T12:57:45;1999.90;;;999.90;;
14015;SDS011;7083;48.854;9.158;2022-12-07T13:00:15;1999.90;;;999.90;;
14015;SDS011;7083;48.854;9.158;2022-12-07T13:02:47;1999.90;;;999.90;;
14015;SDS011;7083;48.854;9.158;2022-12-07T13:05:16;1999.90;;;999.90;;
14015;SDS011;7083;48.854;9.158;2022-12-07T13:10:41;1999.90;;;999.90;;
14015;SDS011;7083;48.854;9.158;2022-12-07T13:13:29;1999.90;;;999.90;;
14015;SDS011;7083;48.854;9.158;2022-12-07T13:22:43;1999.90;;;999.90;;
14015;SDS011;7083;48.854;9.158;2022-12-07T13:25:18;1999.90;;;999.90;;
14015;SDS011;7083;48.854;9.158;2022-12-07T13:28:11;1999.90;;;999.90;;
14015;SDS011;7083;48.854;9.158;2022-12-07T13:30:43;1999.90;;;999.90;;
14015;SDS011;7083;48.854;9.158;2022-12-07T13:33:16;1999.90;;;999.90;;
14015;SDS011;7083;48.854;9.158;2022-12-07T13:35:44;1999.90;;;999.90;;
14015;SDS011;7083;48.854;9.158;2022-12-07T13:38:20;1999.90;;;999.90;;
14015;SDS011;7083;48.854;9.158;2022-12-07T13:41:01;1999.90;;;999.90;;
14015;SDS011;7083;48.854;9.158;2022-12-07T13:43:48;1999.90;;;999.90;;
14015;SDS011;7083;48.854;9.158;2022-12-07T13:46:17;1999.90;;;999.90;;
14015;SDS011;7083;48.854;9.158;2022-12-07T13:48:47;1999.90;;;999.90;;
14015;SDS011;7083;48.854;9.158;2022-12-07T13:51:17;1999.90;;;999.90;;
14015;SDS011;7083;48.854;9.158;2022-12-07T13:53:46;1999.90;;;999.90;;
14015;SDS011;7083;48.854;9.158;2022-12-07T13:56:13;1999.90;;;999.90;;
14015;SDS011;7083;48.854;9.158;2022-12-07T13:58:41;1999.90;;;999.90;;
14015;SDS011;7083;48.854;9.158;2022-12-07T14:01:09;1999.90;;;999.90;;
14015;SDS011;7083;48.854;9.158;2022-12-07T14:03:38;1999.90;;;999.90;;
14015;SDS011;7083;48.854;9.158;2022-12-07T14:09:05;1999.90;;;999.90;;
14015;SDS011;7083;48.854;9.158;2022-12-07T14:11:42;1999.90;;;999.90;;
14015;SDS011;7083;48.854;9.158;2022-12-07T14:14:10;1999.90;;;999.90;;
14015;SDS011;7083;48.854;9.158;2022-12-07T14:16:41;1999.90;;;999.90;;
14015;SDS011;7083;48.854;9.158;2022-12-07T14:22:07;1999.90;;;999.90;;
14015;SDS011;7083;48.854;9.158;2022-12-07T14:24:41;1999.90;;;999.90;;
14015;SDS011;7083;48.854;9.158;2022-12-07T14:27:15;1999.90;;;999.90;;
14015;SDS011;7083;48.854;9.158;2022-12-07T14:29:44;1999.90;;;999.90;;
14015;SDS011;7083;48.854;9.158;2022-12-07T14:32:20;1999.90;;;999.90;;
14015;SDS011;7083;48.854;9.158;2022-12-07T14:34:53;1999.90;;;999.90;;
14015;SDS011;7083;48.854;9.158;2022-12-07T14:37:21;1999.90;;;999.90;;
14015;SDS011;7083;48.854;9.158;2022-12-07T14:39:47;1999.90;;;999.90;;
14015;SDS011;7083;48.854;9.158;2022-12-07T14:42:14;1999.90;;;999.90;;
14015;SDS011;7083;48.854;9.158;2022-12-07T14:44:41;1999.90;;;999.90;;
14015;SDS011;7083;48.854;9.158;2022-12-07T14:47:08;1999.90;;;999.90;;
14015;SDS011;7083;48.854;9.158;2022-12-07T14:49:37;1999.90;;;999.90;;
14015;SDS011;7083;48.854;9.158;2022-12-07T14:52:03;1999.90;;;999.90;;
14015;SDS011;7083;48.854;9.158;2022-12-07T14:54:32;1999.90;;;999.90;;